McCarran International Airport
KLAS : now visible

Airfield :











YOU CAN JOIN US ON...

 
LOGIN :

Register | Disclaimer

   EN    FR    IT 

 









Legend :    VFR   Marginal VFR   IFR   Intensive IFR   Very Intensive IFR
Visi :
Ceiling :
>= 8 km
>= 3000ft
5 to 8 km
1000 to 3000 ft
1500m to 5 km
500 to 1000 ft
800 to 1500m
200 to 500 ft
< 800m
< 200 ft
Symbols :   Thunderstorms  Fog  Heavy snow  Heavy precipitations  Wind > 20 kt






- Airport Elevation : 2181 ft
- IATA code : LAS


KLAS - McCarran International

CURRENT METAR :
  • 031356Z 20003KT 10SM FEW140 32/11 A3003 RMK AO2 SLP135 T03170106

EXPIRED METARs :
  • 031256Z 21004KT 10SM SCT140 30/09 A3001 RMK AO2 SLP128 T03000089
  • 031156Z 21003KT 10SM FEW008 BKN140 31/11 A2999 RMK AO2 SLP123 FU FEW008 FU PLUME DSNT N T03110111 10350 20306 53008

TAF KLAS
Valid from the 03 at 12:00 until the 04 at 18:00 UTC


031120Z 0312/0418 22005KT P6SM FEW110 FEW150
FM031500 VRB05KT P6SM FEW110
FM031900 09006KT P6SM FEW110
FM040400 22007KT P6SM SKC
KZLA FIR / North America



MET'MAP, your aeronautical weather chart ! - Copyright ORBIFLY December 2007 - Disclaimer

ORBIFLY MET'MAP TEAM :

Programming & Development : Alexandra Zaïnal
Concept & original design : Baudouin d'Aumeries
Assistance for programming : Marc-Olivier Méhu
Technical & hardware support : Manuel Goepfert

Contact : metmap@orbifly.com




SOURCES & CREDITS :

   NOAA       Earth
Advisory